^^
Station Historical Data
Daily Summary for August 23, 2017 Units:  Both    English   Metric
« Previous Day
Next Day »
Daily Weekly Monthly Yearly Custom
  High: Low: Average:
Temperature: TemperatureF °F /  -17.8 °C 44.2 °F /  6.8 °C 61.7 °F /  16.5 °C
Dew Point: DewpointF °F /  -17.8 °C 12.2 °F /  -11 °C 15.8 °F /  -9 °C
Humidity: Humidity% 8% 18%
Wind Speed: WindSpeedMPHmph /  0km/h - 1mph /  1.6km/h
Wind Gust: WindSpeedGustMPHmph /  0km/h - -
Wind- - SSW
Pressure: PressureIn in /  0 hPa 29.87 in /  1011.4 hPa -
Precipitation: 0.00 in /  0 mm    
Historical Graphs
 
 
Tabular Data for August 23, 2017
Time Temperature Dew Point Pressure Wind Wind Speed Wind Gust Humidity Rainfall Rate (Hourly) solar Conditions
TemperatureF °F /  -17.8 °C DewpointF °F /  -17.8 °C PressureInin /  0hPa Calm     Humidity% HourlyPrecipInin /  0mm SolarRadiationWatts/m^2 W/m2 Conditions
00:05 52.9 °F /  11.6 °C 14.0 °F /  -10 °C 30.26in /  1024.6hPa Calm     21% 0.00in /  0mm 0.0 W/m2
00:11 52.7 °F /  11.5 °C 12.7 °F /  -10.7 °C 30.26in /  1024.6hPa Calm     20% 0.00in /  0mm 0.0 W/m2
00:17 52.7 °F /  11.5 °C 12.7 °F /  -10.7 °C 30.25in /  1024.3hPa Calm     20% 0.00in /  0mm 0.0 W/m2
00:23 52.7 °F /  11.5 °C 12.7 °F /  -10.7 °C 30.25in /  1024.3hPa Calm     20% 0.00in /  0mm 0.0 W/m2
00:29 52.7 °F /  11.5 °C 12.7 °F /  -10.7 °C 30.25in /  1024.3hPa Calm   2.0mph /  3.2km/h 20% 0.00in /  0mm 0.0 W/m2
00:35 52.5 °F /  11.4 °C 12.6 °F /  -10.8 °C 30.25in /  1024.3hPa Calm     20% 0.00in /  0mm 0.0 W/m2
00:42 52.3 °F /  11.3 °C 12.4 °F /  -10.9 °C 30.25in /  1024.3hPa Calm   1.0mph /  1.6km/h 20% 0.00in /  0mm 0.0 W/m2
00:48 52.2 °F /  11.2 °C 13.5 °F /  -10.3 °C 30.25in /  1024.3hPa Calm     21% 0.00in /  0mm 0.0 W/m2
00:54 52.0 °F /  11.1 °C 13.3 °F /  -10.4 °C 30.25in /  1024.3hPa Calm     21% 0.00in /  0mm 0.0 W/m2
01:00 51.6 °F /  10.9 °C 14.0 °F /  -10 °C 30.24in /  1023.9hPa Calm     22% 0.00in /  0mm 0.0 W/m2
01:06 51.3 °F /  10.7 °C 13.6 °F /  -10.2 °C 30.24in /  1023.9hPa Calm   2.0mph /  3.2km/h 22% 0.00in /  0mm 0.0 W/m2
01:12 51.1 °F /  10.6 °C 13.5 °F /  -10.3 °C 30.24in /  1023.9hPa Calm     22% 0.00in /  0mm 0.0 W/m2
01:18 50.5 °F /  10.3 °C 13.1 °F /  -10.5 °C 30.24in /  1023.9hPa Calm     22% 0.00in /  0mm 0.0 W/m2
01:25 50.0 °F /  10 °C 13.6 °F /  -10.2 °C 30.24in /  1023.9hPa Calm     23% 0.00in /  0mm 0.0 W/m2
01:31 49.6 °F /  9.8 °C 13.3 °F /  -10.4 °C 30.23in /  1023.6hPa Calm     23% 0.00in /  0mm 0.0 W/m2
01:37 49.3 °F /  9.6 °C 14.0 °F /  -10 °C 30.23in /  1023.6hPa Calm     24% 0.00in /  0mm 0.0 W/m2
01:43 48.7 °F /  9.3 °C 13.5 °F /  -10.3 °C 30.23in /  1023.6hPa Calm     24% 0.00in /  0mm 0.0 W/m2
01:49 48.4 °F /  9.1 °C 13.3 °F /  -10.4 °C 30.23in /  1023.6hPa Calm     24% 0.00in /  0mm 0.0 W/m2
01:55 48.2 °F /  9 °C 13.1 °F /  -10.5 °C 30.23in /  1023.6hPa Calm     24% 0.00in /  0mm 0.0 W/m2
02:01 48.0 °F /  8.9 °C 13.8 °F /  -10.1 °C 30.23in /  1023.6hPa Calm     25% 0.00in /  0mm 0.0 W/m2
02:07 47.8 °F /  8.8 °C 13.6 °F /  -10.2 °C 30.22in /  1023.2hPa Calm     25% 0.00in /  0mm 0.0 W/m2
02:13 47.5 °F /  8.6 °C 13.5 °F /  -10.3 °C 29.96in /  1014.4hPa Calm     25% 0.00in /  0mm 0.0 W/m2
02:19 46.9 °F /  8.3 °C 12.9 °F /  -10.6 °C 29.96in /  1014.4hPa Calm     25% 0.00in /  0mm 0.0 W/m2
02:25 46.8 °F /  8.2 °C 12.7 °F /  -10.7 °C 29.96in /  1014.4hPa Calm     25% 0.00in /  0mm 0.0 W/m2
02:31 46.6 °F /  8.1 °C 13.5 °F /  -10.3 °C 29.96in /  1014.4hPa Calm     26% 0.00in /  0mm 0.0 W/m2
02:37 46.4 °F /  8 °C 13.3 °F /  -10.4 °C 29.96in /  1014.4hPa Calm     26% 0.00in /  0mm 0.0 W/m2
02:43 46.2 °F /  7.9 °C 13.3 °F /  -10.4 °C 29.96in /  1014.4hPa Calm     26% 0.00in /  0mm 0.0 W/m2
02:49 46.2 °F /  7.9 °C 13.3 °F /  -10.4 °C 29.96in /  1014.4hPa Calm     26% 0.00in /  0mm 0.0 W/m2
02:55 46.2 °F /  7.9 °C 13.3 °F /  -10.4 °C 29.96in /  1014.4hPa Calm     26% 0.00in /  0mm 0.0 W/m2
03:01 46.0 °F /  7.8 °C 14.0 °F /  -10 °C 29.96in /  1014.4hPa Calm     27% 0.00in /  0mm 0.0 W/m2
03:07 46.0 °F /  7.8 °C 13.1 °F /  -10.5 °C 29.96in /  1014.4hPa Calm     26% 0.00in /  0mm 0.0 W/m2
03:13 45.9 °F /  7.7 °C 14.5 °F /  -9.7 °C 29.95in /  1014.1hPa Calm     28% 0.00in /  0mm 0.0 W/m2
03:20 45.7 °F /  7.6 °C 14.4 °F /  -9.8 °C 29.95in /  1014.1hPa Calm     28% 0.00in /  0mm 0.0 W/m2
03:26 45.7 °F /  7.6 °C 14.4 °F /  -9.8 °C 29.95in /  1014.1hPa Calm     28% 0.00in /  0mm 0.0 W/m2
03:32 45.5 °F /  7.5 °C 14.4 °F /  -9.8 °C 29.96in /  1014.4hPa Calm     28% 0.00in /  0mm 0.0 W/m2
03:38 45.3 °F /  7.4 °C 14.2 °F /  -9.9 °C 29.96in /  1014.4hPa Calm     28% 0.00in /  0mm 0.0 W/m2
03:44 45.1 °F /  7.3 °C 13.1 °F /  -10.5 °C 29.96in /  1014.4hPa Calm     27% 0.00in /  0mm 0.0 W/m2
03:50 45.1 °F /  7.3 °C 14.7 °F /  -9.6 °C 29.96in /  1014.4hPa Calm     29% 0.00in /  0mm 0.0 W/m2
03:56 45.3 °F /  7.4 °C 14.2 °F /  -9.9 °C 29.96in /  1014.4hPa Calm     28% 0.00in /  0mm 0.0 W/m2
04:02 45.3 °F /  7.4 °C 14.2 °F /  -9.9 °C 29.96in /  1014.4hPa Calm     28% 0.00in /  0mm 0.0 W/m2
04:08 45.3 °F /  7.4 °C 14.9 °F /  -9.5 °C 29.96in /  1014.4hPa Calm     29% 0.00in /  0mm 0.0 W/m2
04:14 45.1 °F /  7.3 °C 14.7 °F /  -9.6 °C 29.96in /  1014.4hPa Calm     29% 0.00in /  0mm 0.0 W/m2
04:20 45.0 °F /  7.2 °C 14.5 °F /  -9.7 °C 29.96in /  1014.4hPa Calm     29% 0.00in /  0mm 0.0 W/m2
04:26 44.8 °F /  7.1 °C 14.5 °F /  -9.7 °C 29.96in /  1014.4hPa Calm     29% 0.00in /  0mm 0.0 W/m2
04:36 44.4 °F /  6.9 °C 14.2 °F /  -9.9 °C 29.96in /  1014.4hPa Calm     29% 0.00in /  0mm 0.0 W/m2
04:42 44.2 °F /  6.8 °C 14.0 °F /  -10 °C 29.96in /  1014.4hPa Calm     29% 0.00in /  0mm 0.0 W/m2
04:48 44.4 °F /  6.9 °C 12.6 °F /  -10.8 °C 29.96in /  1014.4hPa Calm   1.0mph /  1.6km/h 27% 0.00in /  0mm 0.0 W/m2
04:54 45.1 °F /  7.3 °C 12.2 °F /  -11 °C 29.97in /  1014.8hPa Calm     26% 0.00in /  0mm 0.0 W/m2
05:00 45.7 °F /  7.6 °C 13.6 °F /  -10.2 °C 29.97in /  1014.8hPa Calm     27% 0.00in /  0mm 0.0 W/m2
05:06 45.7 °F /  7.6 °C 12.7 °F /  -10.7 °C 29.97in /  1014.8hPa Calm     26% 0.00in /  0mm 0.0 W/m2
05:12 45.7 °F /  7.6 °C 14.4 °F /  -9.8 °C 29.97in /  1014.8hPa Calm     28% 0.00in /  0mm 0.0 W/m2
05:18 45.3 °F /  7.4 °C 14.2 °F /  -9.9 °C 29.97in /  1014.8hPa Calm     28% 0.00in /  0mm 0.0 W/m2
05:24 44.8 °F /  7.1 °C 13.6 °F /  -10.2 °C 29.98in /  1015.1hPa Calm     28% 0.00in /  0mm 0.0 W/m2
05:30 44.4 °F /  6.9 °C 13.3 °F /  -10.4 °C 29.98in /  1015.1hPa Calm   1.0mph /  1.6km/h 28% 0.00in /  0mm 0.0 W/m2
05:36 44.4 °F /  6.9 °C 13.3 °F /  -10.4 °C 29.98in /  1015.1hPa Calm   2.0mph /  3.2km/h 28% 0.00in /  0mm 0.0 W/m2
05:42 44.8 °F /  7.1 °C 12.7 °F /  -10.7 °C 29.98in /  1015.1hPa Calm     27% 0.00in /  0mm 0.0 W/m2
05:48 45.0 °F /  7.2 °C 12.9 °F /  -10.6 °C 29.98in /  1015.1hPa Calm   1.0mph /  1.6km/h 27% 0.00in /  0mm 0.0 W/m2
05:54 45.3 °F /  7.4 °C 12.4 °F /  -10.9 °C 29.98in /  1015.1hPa Calm   1.0mph /  1.6km/h 26% 0.00in /  0mm 0.0 W/m2
06:00 45.7 °F /  7.6 °C 12.7 °F /  -10.7 °C 29.98in /  1015.1hPa Calm   2.0mph /  3.2km/h 26% 0.00in /  0mm 0.0 W/m2
06:06 45.9 °F /  7.7 °C 12.9 °F /  -10.6 °C 29.99in /  1015.5hPa Calm   2.0mph /  3.2km/h 26% 0.00in /  0mm 0.0 W/m2
06:12 45.9 °F /  7.7 °C 12.9 °F /  -10.6 °C 29.99in /  1015.5hPa Calm   1.0mph /  1.6km/h 26% 0.00in /  0mm 0.0 W/m2
06:18 45.9 °F /  7.7 °C 12.9 °F /  -10.6 °C 29.99in /  1015.5hPa Calm   1.0mph /  1.6km/h 26% 0.00in /  0mm 7.0 W/m2
06:24 46.0 °F /  7.8 °C 14.0 °F /  -10 °C 29.99in /  1015.5hPa East 0.9mph /  1.4km/h 3.0mph /  4.8km/h 27% 0.00in /  0mm 11.0 W/m2
06:30 46.0 °F /  7.8 °C 14.0 °F /  -10 °C 29.99in /  1015.5hPa ESE 2.9mph /  4.7km/h 3.0mph /  4.8km/h 27% 0.00in /  0mm 12.0 W/m2
06:36 46.6 °F /  8.1 °C 14.4 °F /  -9.8 °C 29.99in /  1015.5hPa Calm   1.0mph /  1.6km/h 27% 0.00in /  0mm 16.0 W/m2
06:42 46.9 °F /  8.3 °C 14.7 °F /  -9.6 °C 29.99in /  1015.5hPa Calm   3.0mph /  4.8km/h 27% 0.00in /  0mm 18.0 W/m2
06:48 47.5 °F /  8.6 °C 15.1 °F /  -9.4 °C 29.99in /  1015.5hPa Calm   2.0mph /  3.2km/h 27% 0.00in /  0mm 21.0 W/m2
06:54 47.8 °F /  8.8 °C 15.4 °F /  -9.2 °C 30.00in /  1015.8hPa Calm   2.0mph /  3.2km/h 27% 0.00in /  0mm 23.0 W/m2
07:00 48.4 °F /  9.1 °C 16.0 °F /  -8.9 °C 29.99in /  1015.5hPa Calm   4.0mph /  6.4km/h 27% 0.00in /  0mm 25.0 W/m2
07:06 48.7 °F /  9.3 °C 16.2 °F /  -8.8 °C 30.00in /  1015.8hPa Calm     27% 0.00in /  0mm 26.0 W/m2
07:10 49.1 °F /  9.5 °C 16.5 °F /  -8.6 °C 30.00in /  1015.8hPa Calm   2.0mph /  3.2km/h 27% 0.00in /  0mm 28.0 W/m2
07:16 49.6 °F /  9.8 °C 17.1 °F /  -8.3 °C 30.00in /  1015.8hPa SSE 0.9mph /  1.4km/h 3.0mph /  4.8km/h 27% 0.00in /  0mm 30.0 W/m2
07:22 49.8 °F /  9.9 °C 16.3 °F /  -8.7 °C 30.00in /  1015.8hPa Calm   2.0mph /  3.2km/h 26% 0.00in /  0mm 32.0 W/m2
07:28 50.4 °F /  10.2 °C 18.5 °F /  -7.5 °C 30.00in /  1015.8hPa SE 2.0mph /  3.2km/h 3.0mph /  4.8km/h 28% 0.00in /  0mm 32.0 W/m2
07:34 51.3 °F /  10.7 °C 19.2 °F /  -7.1 °C 30.00in /  1015.8hPa Calm   2.0mph /  3.2km/h 28% 0.00in /  0mm 33.0 W/m2
07:40 52.3 °F /  11.3 °C 18.5 °F /  -7.5 °C 30.00in /  1015.8hPa Calm   5.0mph /  8km/h 26% 0.00in /  0mm 37.0 W/m2
07:46 53.6 °F /  12 °C 18.7 °F /  -7.4 °C 30.00in /  1015.8hPa Calm   5.0mph /  8km/h 25% 0.00in /  0mm 39.0 W/m2
07:52 54.7 °F /  12.6 °C 19.6 °F /  -6.9 °C 30.00in /  1015.8hPa Calm   8.0mph /  12.9km/h 25% 0.00in /  0mm 44.0 W/m2
07:58 55.4 °F /  13 °C 19.2 °F /  -7.1 °C 30.01in /  1016.1hPa Calm   6.0mph /  9.7km/h 24% 0.00in /  0mm 40.0 W/m2
08:04 56.1 °F /  13.4 °C 19.8 °F /  -6.8 °C 30.01in /  1016.1hPa East 0.9mph /  1.4km/h 8.0mph /  12.9km/h 24% 0.00in /  0mm 40.0 W/m2
08:10 57.0 °F /  13.9 °C 19.6 °F /  -6.9 °C 30.01in /  1016.1hPa Calm   6.0mph /  9.7km/h 23% 0.00in /  0mm 42.0 W/m2
08:16 57.9 °F /  14.4 °C 20.3 °F /  -6.5 °C 30.01in /  1016.1hPa East 2.9mph /  4.7km/h 8.0mph /  12.9km/h 23% 0.00in /  0mm 44.0 W/m2
08:22 58.6 °F /  14.8 °C 19.9 °F /  -6.7 °C 30.01in /  1016.1hPa Calm   7.0mph /  11.3km/h 22% 0.00in /  0mm 44.0 W/m2
08:28 59.4 °F /  15.2 °C 19.4 °F /  -7 °C 30.01in /  1016.1hPa NE 2.9mph /  4.7km/h 3.0mph /  4.8km/h 21% 0.00in /  0mm 47.0 W/m2
08:34 60.1 °F /  15.6 °C 21.0 °F /  -6.1 °C 30.01in /  1016.1hPa Calm   6.0mph /  9.7km/h 22% 0.00in /  0mm 156.0 W/m2
08:40 61.0 °F /  16.1 °C 19.6 °F /  -6.9 °C 30.01in /  1016.1hPa NNE 2.9mph /  4.7km/h 7.0mph /  11.3km/h 20% 0.00in /  0mm 487.0 W/m2
08:46 62.4 °F /  16.9 °C 20.8 °F /  -6.2 °C 30.01in /  1016.1hPa Calm   9.0mph /  14.5km/h 20% 0.00in /  0mm 504.0 W/m2
08:52 63.7 °F /  17.6 °C 20.7 °F /  -6.3 °C 30.01in /  1016.1hPa Calm   7.0mph /  11.3km/h 19% 0.00in /  0mm 526.0 W/m2
08:58 64.8 °F /  18.2 °C 20.3 °F /  -6.5 °C 30.01in /  1016.1hPa NE 0.9mph /  1.4km/h 7.0mph /  11.3km/h 18% 0.00in /  0mm 547.0 W/m2
09:04 65.7 °F /  18.7 °C 19.6 °F /  -6.9 °C 30.01in /  1016.1hPa NE 2.0mph /  3.2km/h 9.0mph /  14.5km/h 17% 0.00in /  0mm 563.0 W/m2
09:10 66.4 °F /  19.1 °C 20.3 °F /  -6.5 °C 30.01in /  1016.1hPa Calm   8.0mph /  12.9km/h 17% 0.00in /  0mm 582.0 W/m2
09:16 66.9 °F /  19.4 °C 20.7 °F /  -6.3 °C 30.01in /  1016.1hPa NE 0.9mph /  1.4km/h 8.0mph /  12.9km/h 17% 0.00in /  0mm 599.0 W/m2
09:22 67.6 °F /  19.8 °C 19.8 °F /  -6.8 °C 30.01in /  1016.1hPa ENE 2.9mph /  4.7km/h 7.0mph /  11.3km/h 16% 0.00in /  0mm 613.0 W/m2
09:24 67.6 °F /  19.8 °C 19.8 °F /  -6.8 °C 30.01in /  1016.1hPa ENE 2.0mph /  3.2km/h 8.0mph /  12.9km/h 16% 0.00in /  0mm 619.0 W/m2
09:30 68.2 °F /  20.1 °C 20.3 °F /  -6.5 °C 30.01in /  1016.1hPa ESE 6.9mph /  11.1km/h 8.0mph /  12.9km/h 16% 0.00in /  0mm 635.0 W/m2
09:36 68.5 °F /  20.3 °C 20.5 °F /  -6.4 °C 30.01in /  1016.1hPa NE 4.0mph /  6.4km/h 8.0mph /  12.9km/h 16% 0.00in /  0mm 649.0 W/m2
09:42 68.7 °F /  20.4 °C 20.7 °F /  -6.3 °C 30.01in /  1016.1hPa East 6.0mph /  9.7km/h 9.0mph /  14.5km/h 16% 0.00in /  0mm 663.0 W/m2
09:48 69.4 °F /  20.8 °C 19.8 °F /  -6.8 °C 30.01in /  1016.1hPa ENE 2.9mph /  4.7km/h 8.0mph /  12.9km/h 15% 0.00in /  0mm 677.0 W/m2
09:54 69.8 °F /  21 °C 20.1 °F /  -6.6 °C 30.01in /  1016.1hPa East 2.0mph /  3.2km/h 7.0mph /  11.3km/h 15% 0.00in /  0mm 691.0 W/m2
10:00 70.3 °F /  21.3 °C 20.5 °F /  -6.4 °C 30.01in /  1016.1hPa East 4.0mph /  6.4km/h 7.0mph /  11.3km/h 15% 0.00in /  0mm 703.0 W/m2
10:06 70.9 °F /  21.6 °C 20.8 °F /  -6.2 °C 30.01in /  1016.1hPa East 2.0mph /  3.2km/h 5.0mph /  8km/h 15% 0.00in /  0mm 717.0 W/m2
10:12 71.4 °F /  21.9 °C 21.4 °F /  -5.9 °C 30.01in /  1016.1hPa Calm   5.0mph /  8km/h 15% 0.00in /  0mm 726.0 W/m2
10:18 72.1 °F /  22.3 °C 20.3 °F /  -6.5 °C 30.01in /  1016.1hPa NNE 0.9mph /  1.4km/h 6.0mph /  9.7km/h 14% 0.00in /  0mm 737.0 W/m2
10:24 72.7 °F /  22.6 °C 20.7 °F /  -6.3 °C 30.00in /  1015.8hPa Calm   5.0mph /  8km/h 14% 0.00in /  0mm 745.0 W/m2
10:30 73.2 °F /  22.9 °C 21.2 °F /  -6 °C 30.00in /  1015.8hPa NE 0.9mph /  1.4km/h 4.0mph /  6.4km/h 14% 0.00in /  0mm 756.0 W/m2
10:36 73.8 °F /  23.2 °C 21.6 °F /  -5.8 °C 29.99in /  1015.5hPa Calm   3.0mph /  4.8km/h 14% 0.00in /  0mm 765.0 W/m2
10:42 74.3 °F /  23.5 °C 20.3 °F /  -6.5 °C 29.99in /  1015.5hPa NNE 2.0mph /  3.2km/h 2.0mph /  3.2km/h 13% 0.00in /  0mm 772.0 W/m2
10:48 75.0 °F /  23.9 °C 20.8 °F /  -6.2 °C 29.99in /  1015.5hPa East 0.9mph /  1.4km/h 2.0mph /  3.2km/h 13% 0.00in /  0mm 780.0 W/m2
10:54 75.6 °F /  24.2 °C 21.2 °F /  -6 °C 29.98in /  1015.1hPa Calm   2.0mph /  3.2km/h 13% 0.00in /  0mm 786.0 W/m2
11:00 75.9 °F /  24.4 °C 21.6 °F /  -5.8 °C 29.98in /  1015.1hPa North 2.0mph /  3.2km/h 6.0mph /  9.7km/h 13% 0.00in /  0mm 793.0 W/m2
11:06 76.6 °F /  24.8 °C 18.1 °F /  -7.7 °C 29.98in /  1015.1hPa NNW 2.0mph /  3.2km/h 9.0mph /  14.5km/h 11% 0.00in /  0mm 795.0 W/m2
11:12 77.2 °F /  25.1 °C 18.7 °F /  -7.4 °C 29.97in /  1014.8hPa North 2.0mph /  3.2km/h 7.0mph /  11.3km/h 11% 0.00in /  0mm 800.0 W/m2
11:18 77.4 °F /  25.2 °C 18.7 °F /  -7.4 °C 29.97in /  1014.8hPa NNE 4.0mph /  6.4km/h 5.0mph /  8km/h 11% 0.00in /  0mm 802.0 W/m2
11:24 77.7 °F /  25.4 °C 19.0 °F /  -7.2 °C 29.97in /  1014.8hPa NW 0.9mph /  1.4km/h 7.0mph /  11.3km/h 11% 0.00in /  0mm 807.0 W/m2
11:30 77.7 °F /  25.4 °C 19.0 °F /  -7.2 °C 29.97in /  1014.8hPa Calm   7.0mph /  11.3km/h 11% 0.00in /  0mm 812.0 W/m2
11:36 77.7 °F /  25.4 °C 19.0 °F /  -7.2 °C 29.96in /  1014.4hPa WSW 0.9mph /  1.4km/h 2.0mph /  3.2km/h 11% 0.00in /  0mm 810.0 W/m2
11:42 78.1 °F /  25.6 °C 19.2 °F /  -7.1 °C 29.96in /  1014.4hPa North 2.9mph /  4.7km/h 3.0mph /  4.8km/h 11% 0.00in /  0mm 812.0 W/m2
11:48 78.6 °F /  25.9 °C 19.8 °F /  -6.8 °C 29.95in /  1014.1hPa NNW 4.0mph /  6.4km/h 5.0mph /  8km/h 11% 0.00in /  0mm 814.0 W/m2
11:55 79.0 °F /  26.1 °C 19.9 °F /  -6.7 °C 29.95in /  1014.1hPa WSW 2.0mph /  3.2km/h 5.0mph /  8km/h 11% 0.00in /  0mm 803.0 W/m2
12:01 79.2 °F /  26.2 °C 18.0 °F /  -7.8 °C 29.95in /  1014.1hPa NNW 4.0mph /  6.4km/h 7.0mph /  11.3km/h 10% 0.00in /  0mm 816.0 W/m2
12:07 79.7 °F /  26.5 °C 18.3 °F /  -7.6 °C 29.95in /  1014.1hPa Calm   3.0mph /  4.8km/h 10% 0.00in /  0mm 814.0 W/m2
12:13 79.9 °F /  26.6 °C 16.0 °F /  -8.9 °C 29.94in /  1013.8hPa NW 2.0mph /  3.2km/h 8.0mph /  12.9km/h 9% 0.00in /  0mm 798.0 W/m2
12:19 79.9 °F /  26.6 °C 18.5 °F /  -7.5 °C 29.94in /  1013.8hPa Calm   5.0mph /  8km/h 10% 0.00in /  0mm 803.0 W/m2
12:25 80.1 °F /  26.7 °C 16.2 °F /  -8.8 °C 29.94in /  1013.8hPa NW 0.9mph /  1.4km/h 7.0mph /  11.3km/h 9% 0.00in /  0mm 809.0 W/m2
12:31 80.2 °F /  26.8 °C 16.3 °F /  -8.7 °C 29.93in /  1013.4hPa NNE 4.0mph /  6.4km/h 5.0mph /  8km/h 9% 0.00in /  0mm 803.0 W/m2
12:37 80.4 °F /  26.9 °C 18.9 °F /  -7.3 °C 29.93in /  1013.4hPa Calm   2.0mph /  3.2km/h 10% 0.00in /  0mm 793.0 W/m2
12:49 80.2 °F /  26.8 °C 16.3 °F /  -8.7 °C 29.93in /  1013.4hPa West 2.9mph /  4.7km/h 10.0mph /  16.1km/h 9% 0.00in /  0mm 779.0 W/m2
12:55 80.2 °F /  26.8 °C 16.3 °F /  -8.7 °C 29.92in /  1013.1hPa WNW 2.9mph /  4.7km/h 4.0mph /  6.4km/h 9% 0.00in /  0mm 766.0 W/m2
13:01 80.1 °F /  26.7 °C 16.2 °F /  -8.8 °C 29.92in /  1013.1hPa West 2.0mph /  3.2km/h 7.0mph /  11.3km/h 9% 0.00in /  0mm 759.0 W/m2
13:07 79.9 °F /  26.6 °C 16.0 °F /  -8.9 °C 29.91in /  1012.8hPa NNW 2.9mph /  4.7km/h 4.0mph /  6.4km/h 9% 0.00in /  0mm 751.0 W/m2
13:13 80.2 °F /  26.8 °C 16.3 °F /  -8.7 °C 29.91in /  1012.8hPa NNW 4.0mph /  6.4km/h 11.0mph /  17.7km/h 9% 0.00in /  0mm 740.0 W/m2
13:19 80.4 °F /  26.9 °C 16.3 °F /  -8.7 °C 29.91in /  1012.8hPa West 6.0mph /  9.7km/h 6.0mph /  9.7km/h 9% 0.00in /  0mm 735.0 W/m2
13:25 80.6 °F /  27 °C 16.5 °F /  -8.6 °C 29.90in /  1012.4hPa North 6.0mph /  9.7km/h 8.0mph /  12.9km/h 9% 0.00in /  0mm 715.0 W/m2
13:31 81.0 °F /  27.2 °C 16.9 °F /  -8.4 °C 29.90in /  1012.4hPa NW 11.0mph /  17.7km/h 11.0mph /  17.7km/h 9% 0.00in /  0mm 687.0 W/m2
13:37 81.0 °F /  27.2 °C 16.9 °F /  -8.4 °C 29.90in /  1012.4hPa ENE 4.9mph /  7.9km/h 9.0mph /  14.5km/h 9% 0.00in /  0mm 689.0 W/m2
13:44 80.8 °F /  27.1 °C 16.7 °F /  -8.5 °C 29.89in /  1012.1hPa WSW 4.9mph /  7.9km/h 5.0mph /  8km/h 9% 0.00in /  0mm 684.0 W/m2
13:50 80.8 °F /  27.1 °C 16.7 °F /  -8.5 °C 29.89in /  1012.1hPa WSW 6.9mph /  11.1km/h 7.0mph /  11.3km/h 9% 0.00in /  0mm 666.0 W/m2
13:56 80.8 °F /  27.1 °C 14.0 °F /  -10 °C 29.89in /  1012.1hPa NW 4.0mph /  6.4km/h 4.0mph /  6.4km/h 8% 0.00in /  0mm 654.0 W/m2
14:02 80.8 °F /  27.1 °C 14.0 °F /  -10 °C 29.89in /  1012.1hPa North 6.0mph /  9.7km/h 8.0mph /  12.9km/h 8% 0.00in /  0mm 643.0 W/m2
14:08 81.1 °F /  27.3 °C 14.2 °F /  -9.9 °C 29.88in /  1011.7hPa West 2.0mph /  3.2km/h 5.0mph /  8km/h 8% 0.00in /  0mm 626.0 W/m2
14:14 81.7 °F /  27.6 °C 14.7 °F /  -9.6 °C 29.88in /  1011.7hPa NNW 2.9mph /  4.7km/h 9.0mph /  14.5km/h 8% 0.00in /  0mm 615.0 W/m2
14:20 81.9 °F /  27.7 °C 14.7 °F /  -9.6 °C 29.88in /  1011.7hPa West 2.0mph /  3.2km/h 8.0mph /  12.9km/h 8% 0.00in /  0mm 599.0 W/m2
14:27 81.9 °F /  27.7 °C 14.7 °F /  -9.6 °C 29.88in /  1011.7hPa NNW 2.9mph /  4.7km/h 7.0mph /  11.3km/h 8% 0.00in /  0mm 584.0 W/m2
14:33 82.0 °F /  27.8 °C 14.9 °F /  -9.5 °C 29.88in /  1011.7hPa WSW 4.9mph /  7.9km/h 6.0mph /  9.7km/h 8% 0.00in /  0mm 566.0 W/m2
14:39 82.0 °F /  27.8 °C 14.9 °F /  -9.5 °C 29.88in /  1011.7hPa Calm   5.0mph /  8km/h 8% 0.00in /  0mm 547.0 W/m2
14:45 82.0 °F /  27.8 °C 14.9 °F /  -9.5 °C 29.88in /  1011.7hPa West 8.9mph /  14.3km/h 10.0mph /  16.1km/h 8% 0.00in /  0mm 527.0 W/m2
14:51 81.5 °F /  27.5 °C 14.5 °F /  -9.7 °C 29.88in /  1011.7hPa West 2.9mph /  4.7km/h 5.0mph /  8km/h 8% 0.00in /  0mm 506.0 W/m2
14:57 81.5 °F /  27.5 °C 14.5 °F /  -9.7 °C 29.88in /  1011.7hPa NW 4.0mph /  6.4km/h 7.0mph /  11.3km/h 8% 0.00in /  0mm 490.0 W/m2
15:03 81.7 °F /  27.6 °C 14.7 °F /  -9.6 °C 29.88in /  1011.7hPa NNW 0.9mph /  1.4km/h 5.0mph /  8km/h 8% 0.00in /  0mm 468.0 W/m2
15:09 81.9 °F /  27.7 °C 14.7 °F /  -9.6 °C 29.87in /  1011.4hPa North 2.9mph /  4.7km/h 4.0mph /  6.4km/h 8% 0.00in /  0mm 450.0 W/m2
15:15 81.9 °F /  27.7 °C 14.7 °F /  -9.6 °C 29.87in /  1011.4hPa North 2.0mph /  3.2km/h 2.0mph /  3.2km/h 8% 0.00in /  0mm 432.0 W/m2
15:22 81.9 °F /  27.7 °C 14.7 °F /  -9.6 °C 29.87in /  1011.4hPa Calm   7.0mph /  11.3km/h 8% 0.00in /  0mm 410.0 W/m2
15:28 81.9 °F /  27.7 °C 14.7 °F /  -9.6 °C 29.87in /  1011.4hPa WNW 2.0mph /  3.2km/h 7.0mph /  11.3km/h 8% 0.00in /  0mm 388.0 W/m2
15:34 81.9 °F /  27.7 °C 14.7 °F /  -9.6 °C 29.87in /  1011.4hPa NW 4.9mph /  7.9km/h 5.0mph /  8km/h 8% 0.00in /  0mm 371.0 W/m2
15:40 81.9 °F /  27.7 °C 14.7 °F /  -9.6 °C 29.87in /  1011.4hPa North 0.9mph /  1.4km/h 5.0mph /  8km/h 8% 0.00in /  0mm 345.0 W/m2
15:48 81.9 °F /  27.7 °C 14.7 °F /  -9.6 °C 29.87in /  1011.4hPa WNW 4.0mph /  6.4km/h 8.0mph /  12.9km/h 8% 0.00in /  0mm 334.0 W/m2
15:53 81.5 °F /  27.5 °C 14.5 °F /  -9.7 °C 29.87in /  1011.4hPa NW 2.0mph /  3.2km/h 7.0mph /  11.3km/h 8% 0.00in /  0mm 316.0 W/m2
16:03 80.4 °F /  26.9 °C 13.6 °F /  -10.2 °C 29.88in /  1011.7hPa West 2.9mph /  4.7km/h 7.0mph /  11.3km/h 8% 0.00in /  0mm 271.0 W/m2
16:14 79.5 °F /  26.4 °C 13.1 °F /  -10.5 °C 29.88in /  1011.7hPa Calm   5.0mph /  8km/h 8% 0.00in /  0mm 54.0 W/m2
16:19 79.5 °F /  26.4 °C 13.1 °F /  -10.5 °C 29.88in /  1011.7hPa Calm   7.0mph /  11.3km/h 8% 0.00in /  0mm 51.0 W/m2
16:24 79.5 °F /  26.4 °C 13.1 °F /  -10.5 °C 29.88in /  1011.7hPa WSW 4.0mph /  6.4km/h 7.0mph /  11.3km/h 8% 0.00in /  0mm 49.0 W/m2
16:30 79.2 °F /  26.2 °C 12.7 °F /  -10.7 °C 29.88in /  1011.7hPa West 6.0mph /  9.7km/h 7.0mph /  11.3km/h 8% 0.00in /  0mm 146.0 W/m2
16:35 78.6 °F /  25.9 °C 12.4 °F /  -10.9 °C 29.88in /  1011.7hPa SW 0.9mph /  1.4km/h 5.0mph /  8km/h 8% 0.00in /  0mm 62.0 W/m2
16:41 78.3 °F /  25.7 °C 14.7 °F /  -9.6 °C 29.88in /  1011.7hPa NW 0.9mph /  1.4km/h 3.0mph /  4.8km/h 9% 0.00in /  0mm 62.0 W/m2
16:49 78.3 °F /  25.7 °C 12.2 °F /  -11 °C 29.88in /  1011.7hPa SSW 2.0mph /  3.2km/h 7.0mph /  11.3km/h 8% 0.00in /  0mm 67.0 W/m2
16:54 77.7 °F /  25.4 °C 14.4 °F /  -9.8 °C 29.88in /  1011.7hPa WSW 2.0mph /  3.2km/h 3.0mph /  4.8km/h 9% 0.00in /  0mm 58.0 W/m2
17:01 77.2 °F /  25.1 °C 14.0 °F /  -10 °C 29.89in /  1012.1hPa WSW 0.9mph /  1.4km/h 4.0mph /  6.4km/h 9% 0.00in /  0mm 30.0 W/m2
17:09 76.8 °F /  24.9 °C 13.6 °F /  -10.2 °C 29.89in /  1012.1hPa WSW 2.0mph /  3.2km/h 5.0mph /  8km/h 9% 0.00in /  0mm 37.0 W/m2
17:15 76.3 °F /  24.6 °C 13.3 °F /  -10.4 °C 29.89in /  1012.1hPa WSW 0.9mph /  1.4km/h 6.0mph /  9.7km/h 9% 0.00in /  0mm 21.0 W/m2
17:20 75.9 °F /  24.4 °C 13.1 °F /  -10.5 °C 29.89in /  1012.1hPa West 2.0mph /  3.2km/h 4.0mph /  6.4km/h 9% 0.00in /  0mm 16.0 W/m2
17:26 75.4 °F /  24.1 °C 12.6 °F /  -10.8 °C 29.89in /  1012.1hPa SW 0.9mph /  1.4km/h 5.0mph /  8km/h 9% 0.00in /  0mm 12.0 W/m2
17:33 74.8 °F /  23.8 °C 14.5 °F /  -9.7 °C 29.89in /  1012.1hPa SW 0.9mph /  1.4km/h 4.0mph /  6.4km/h 10% 0.00in /  0mm 7.0 W/m2
17:38 74.5 °F /  23.6 °C 14.4 °F /  -9.8 °C 29.90in /  1012.4hPa WSW 2.0mph /  3.2km/h 2.0mph /  3.2km/h 10% 0.00in /  0mm 5.0 W/m2
17:44 73.8 °F /  23.2 °C 13.8 °F /  -10.1 °C 29.89in /  1012.1hPa SW 2.0mph /  3.2km/h 3.0mph /  4.8km/h 10% 0.00in /  0mm 0.0 W/m2
17:49 73.2 °F /  22.9 °C 15.6 °F /  -9.1 °C 29.89in /  1012.1hPa Calm     11% 0.00in /  0mm 0.0 W/m2
17:55 72.9 °F /  22.7 °C 15.3 °F /  -9.3 °C 29.90in /  1012.4hPa Calm     11% 0.00in /  0mm 0.0 W/m2
18:00 72.3 °F /  22.4 °C 14.9 °F /  -9.5 °C 29.90in /  1012.4hPa Calm     11% 0.00in /  0mm 0.0 W/m2
18:05 71.2 °F /  21.8 °C 16.0 °F /  -8.9 °C 29.90in /  1012.4hPa Calm     12% 0.00in /  0mm 0.0 W/m2
18:11 70.3 °F /  21.3 °C 15.3 °F /  -9.3 °C 29.90in /  1012.4hPa Calm     12% 0.00in /  0mm 0.0 W/m2
18:17 69.4 °F /  20.8 °C 16.5 °F /  -8.6 °C 29.90in /  1012.4hPa Calm     13% 0.00in /  0mm 0.0 W/m2
18:23 68.7 °F /  20.4 °C 15.8 °F /  -9 °C 29.91in /  1012.8hPa Calm     13% 0.00in /  0mm 0.0 W/m2
18:29 67.8 °F /  19.9 °C 16.9 °F /  -8.4 °C 29.91in /  1012.8hPa Calm     14% 0.00in /  0mm 0.0 W/m2
18:36 67.3 °F /  19.6 °C 18.0 °F /  -7.8 °C 29.91in /  1012.8hPa Calm     15% 0.00in /  0mm 0.0 W/m2
18:42 66.4 °F /  19.1 °C 17.2 °F /  -8.2 °C 29.92in /  1013.1hPa Calm     15% 0.00in /  0mm 0.0 W/m2
18:48 65.5 °F /  18.6 °C 16.5 °F /  -8.6 °C 29.92in /  1013.1hPa Calm     15% 0.00in /  0mm 0.0 W/m2
18:54 64.8 °F /  18.2 °C 16.0 °F /  -8.9 °C 29.92in /  1013.1hPa Calm     15% 0.00in /  0mm 0.0 W/m2
19:00 64.0 °F /  17.8 °C 15.4 °F /  -9.2 °C 29.92in /  1013.1hPa Calm     15% 0.00in /  0mm 0.0 W/m2
19:06 63.3 °F /  17.4 °C 16.3 °F /  -8.7 °C 29.93in /  1013.4hPa Calm     16% 0.00in /  0mm 0.0 W/m2
19:12 62.8 °F /  17.1 °C 16.0 °F /  -8.9 °C 29.93in /  1013.4hPa Calm     16% 0.00in /  0mm 0.0 W/m2
19:19 62.1 °F /  16.7 °C 15.3 °F /  -9.3 °C 29.93in /  1013.4hPa Calm     16% 0.00in /  0mm 0.0 W/m2
19:25 61.5 °F /  16.4 °C 16.3 °F /  -8.7 °C 29.93in /  1013.4hPa Calm     17% 0.00in /  0mm 0.0 W/m2
19:33 61.0 °F /  16.1 °C 17.2 °F /  -8.2 °C 29.94in /  1013.8hPa Calm     18% 0.00in /  0mm 0.0 W/m2
19:39 60.4 °F /  15.8 °C 16.7 °F /  -8.5 °C 29.94in /  1013.8hPa Calm     18% 0.00in /  0mm 0.0 W/m2
19:45 60.1 °F /  15.6 °C 16.3 °F /  -8.7 °C 29.94in /  1013.8hPa Calm     18% 0.00in /  0mm 0.0 W/m2
19:51 59.7 °F /  15.4 °C 16.2 °F /  -8.8 °C 29.94in /  1013.8hPa Calm     18% 0.00in /  0mm 0.0 W/m2
19:57 59.4 °F /  15.2 °C 17.1 °F /  -8.3 °C 29.94in /  1013.8hPa Calm   1.0mph /  1.6km/h 19% 0.00in /  0mm 0.0 W/m2
20:04 58.8 °F /  14.9 °C 16.7 °F /  -8.5 °C 29.94in /  1013.8hPa Calm     19% 0.00in /  0mm 0.0 W/m2
20:10 58.5 °F /  14.7 °C 16.3 °F /  -8.7 °C 29.94in /  1013.8hPa Calm     19% 0.00in /  0mm 0.0 W/m2
20:16 58.3 °F /  14.6 °C 16.2 °F /  -8.8 °C 29.94in /  1013.8hPa Calm   1.0mph /  1.6km/h 19% 0.00in /  0mm 0.0 W/m2
20:22 57.7 °F /  14.3 °C 15.8 °F /  -9 °C 29.95in /  1014.1hPa Calm     19% 0.00in /  0mm 0.0 W/m2
20:28 57.6 °F /  14.2 °C 16.7 °F /  -8.5 °C 29.95in /  1014.1hPa Calm     20% 0.00in /  0mm 0.0 W/m2
20:34 57.2 °F /  14 °C 16.5 °F /  -8.6 °C 29.95in /  1014.1hPa Calm   1.0mph /  1.6km/h 20% 0.00in /  0mm 0.0 W/m2
20:40 56.8 °F /  13.8 °C 16.2 °F /  -8.8 °C 29.95in /  1014.1hPa Calm     20% 0.00in /  0mm 0.0 W/m2
20:46 56.7 °F /  13.7 °C 16.0 °F /  -8.9 °C 29.95in /  1014.1hPa Calm   1.0mph /  1.6km/h 20% 0.00in /  0mm 0.0 W/m2
20:52 56.7 °F /  13.7 °C 16.0 °F /  -8.9 °C 29.95in /  1014.1hPa Calm   2.0mph /  3.2km/h 20% 0.00in /  0mm 0.0 W/m2
20:59 56.8 °F /  13.8 °C 15.1 °F /  -9.4 °C 29.95in /  1014.1hPa Calm   2.0mph /  3.2km/h 19% 0.00in /  0mm 0.0 W/m2
21:05 57.0 °F /  13.9 °C 16.3 °F /  -8.7 °C 29.96in /  1014.4hPa Calm     20% 0.00in /  0mm 0.0 W/m2
21:11 57.0 °F /  13.9 °C 17.4 °F /  -8.1 °C 29.96in /  1014.4hPa Calm     21% 0.00in /  0mm 0.0 W/m2
21:17 56.8 °F /  13.8 °C 16.2 °F /  -8.8 °C 29.96in /  1014.4hPa Calm     20% 0.00in /  0mm 0.0 W/m2
21:23 56.7 °F /  13.7 °C 16.0 °F /  -8.9 °C 29.96in /  1014.4hPa Calm   1.0mph /  1.6km/h 20% 0.00in /  0mm 0.0 W/m2
21:29 56.5 °F /  13.6 °C 15.8 °F /  -9 °C 29.96in /  1014.4hPa Calm   1.0mph /  1.6km/h 20% 0.00in /  0mm 0.0 W/m2
21:36 56.3 °F /  13.5 °C 15.8 °F /  -9 °C 29.96in /  1014.4hPa Calm   1.0mph /  1.6km/h 20% 0.00in /  0mm 0.0 W/m2
21:42 56.1 °F /  13.4 °C 16.7 °F /  -8.5 °C 29.96in /  1014.4hPa Calm     21% 0.00in /  0mm 0.0 W/m2
21:48 55.8 °F /  13.2 °C 16.3 °F /  -8.7 °C 29.96in /  1014.4hPa Calm     21% 0.00in /  0mm 0.0 W/m2
21:54 55.6 °F /  13.1 °C 16.2 °F /  -8.8 °C 29.96in /  1014.4hPa Calm     21% 0.00in /  0mm 0.0 W/m2
22:00 55.2 °F /  12.9 °C 16.0 °F /  -8.9 °C 29.96in /  1014.4hPa Calm   1.0mph /  1.6km/h 21% 0.00in /  0mm 0.0 W/m2
22:06 55.0 °F /  12.8 °C 15.8 °F /  -9 °C 29.96in /  1014.4hPa Calm   1.0mph /  1.6km/h 21% 0.00in /  0mm 0.0 W/m2
22:12 54.9 °F /  12.7 °C 16.7 °F /  -8.5 °C 29.96in /  1014.4hPa Calm     22% 0.00in /  0mm 0.0 W/m2
22:19 54.7 °F /  12.6 °C 15.4 °F /  -9.2 °C 29.97in /  1014.8hPa Calm   1.0mph /  1.6km/h 21% 0.00in /  0mm 0.0 W/m2
22:25 54.3 °F /  12.4 °C 15.3 °F /  -9.3 °C 29.97in /  1014.8hPa Calm   1.0mph /  1.6km/h 21% 0.00in /  0mm 0.0 W/m2
22:31 54.3 °F /  12.4 °C 15.3 °F /  -9.3 °C 29.97in /  1014.8hPa Calm     21% 0.00in /  0mm 0.0 W/m2
22:37 54.1 °F /  12.3 °C 15.1 °F /  -9.4 °C 29.97in /  1014.8hPa Calm     21% 0.00in /  0mm 0.0 W/m2
22:43 54.0 °F /  12.2 °C 14.9 °F /  -9.5 °C 29.97in /  1014.8hPa Calm     21% 0.00in /  0mm 0.0 W/m2
22:49 53.4 °F /  11.9 °C 15.4 °F /  -9.2 °C 29.97in /  1014.8hPa Calm     22% 0.00in /  0mm 0.0 W/m2
22:55 53.2 °F /  11.8 °C 16.3 °F /  -8.7 °C 29.97in /  1014.8hPa Calm     23% 0.00in /  0mm 0.0 W/m2
23:01 52.9 °F /  11.6 °C 16.2 °F /  -8.8 °C 29.97in /  1014.8hPa Calm     23% 0.00in /  0mm 0.0 W/m2
23:07 52.5 °F /  11.4 °C 14.7 °F /  -9.6 °C 29.97in /  1014.8hPa Calm   1.0mph /  1.6km/h 22% 0.00in /  0mm 0.0 W/m2
23:13 52.3 °F /  11.3 °C 14.5 °F /  -9.7 °C 29.97in /  1014.8hPa Calm   3.0mph /  4.8km/h 22% 0.00in /  0mm 0.0 W/m2
23:20 52.3 °F /  11.3 °C 14.5 °F /  -9.7 °C 29.97in /  1014.8hPa Calm   1.0mph /  1.6km/h 22% 0.00in /  0mm 0.0 W/m2
23:26 52.5 °F /  11.4 °C 14.7 °F /  -9.6 °C 29.97in /  1014.8hPa East 2.0mph /  3.2km/h 2.0mph /  3.2km/h 22% 0.00in /  0mm 0.0 W/m2
23:32 52.9 °F /  11.6 °C 15.1 °F /  -9.4 °C 29.96in /  1014.4hPa Calm     22% 0.00in /  0mm 0.0 W/m2
23:38 52.9 °F /  11.6 °C 15.1 °F /  -9.4 °C 29.96in /  1014.4hPa Calm   1.0mph /  1.6km/h 22% 0.00in /  0mm 0.0 W/m2
23:44 52.7 °F /  11.5 °C 14.9 °F /  -9.5 °C 29.97in /  1014.8hPa ENE 0.9mph /  1.4km/h 2.0mph /  3.2km/h 22% 0.00in /  0mm 0.0 W/m2
23:50 52.5 °F /  11.4 °C 14.7 °F /  -9.6 °C 29.97in /  1014.8hPa Calm   3.0mph /  4.8km/h 22% 0.00in /  0mm 0.0 W/m2
23:56 52.5 °F /  11.4 °C 14.7 °F /  -9.6 °C 29.97in /  1014.8hPa ESE 0.9mph /  1.4km/h 2.0mph /  3.2km/h 22% 0.00in /  0mm 0.0 W/m2
Olympia, Windhoek, Namibia
Compliments of Weather Underground - 3 mb